Time;durP1;ratioP1;P1;durP2;ratioP2;P2;SDS_P1;SDS_P2;PMS_P1;PMS_P2;Temp;Humidity;BMP_temperature;BMP_pressure;BME280_temperature;BME280_humidity;BME280_pressure;Samples;Min_cycle;Max_cycle;Signal;HPM_P1;HPM_P2
2022/10/30 00:01:08;;;;;;;1.10;0.43;;;26.30;56.40;;;;;;5073120;28;20339;-73
2022/10/30 00:03:36;;;;;;;3.50;0.87;;;26.70;56.20;;;;;;5073640;28;20175;-74
2022/10/30 00:06:07;;;;;;;0.37;0.37;;;27.20;52.00;;;;;;5073590;28;20183;-73
2022/10/30 00:08:35;;;;;;;2.17;0.70;;;26.90;52.30;;;;;;5073377;28;20175;-74
2022/10/30 00:11:10;;;;;;;2.60;0.43;;;27.10;53.80;;;;;;5072847;28;20235;-70
2022/10/30 00:13:38;;;;;;;1.00;0.47;;;27.20;51.80;;;;;;5073590;28;20258;-74
2022/10/30 00:16:07;;;;;;;3.20;0.60;;;27.10;50.20;;;;;;5068505;28;20195;-67
2022/10/30 00:18:40;;;;;;;0.77;0.30;;;27.00;48.60;;;;;;5071404;28;20649;-67
2022/10/30 00:21:13;;;;;;;0.83;0.30;;;26.80;44.50;;;;;;5070591;28;20272;-67
2022/10/30 00:23:49;;;;;;;0.60;0.40;;;27.10;46.60;;;;;;5073283;28;20676;-69
2022/10/30 00:26:18;;;;;;;1.67;0.50;;;26.90;46.80;;;;;;5073083;28;20175;-67
2022/10/30 00:28:53;;;;;;;0.70;0.30;;;26.60;47.70;;;;;;5071905;28;20180;-67
2022/10/30 00:31:20;;;;;;;1.97;0.50;;;27.20;49.00;;;;;;5076477;28;20175;-69
2022/10/30 00:33:52;;;;;;;0.83;0.30;;;27.50;47.40;;;;;;5075254;28;20180;-67
2022/10/30 00:36:20;;;;;;;4.43;0.60;;;27.60;49.10;;;;;;5072727;28;20188;-68
2022/10/30 00:38:48;;;;;;;3.07;0.40;;;28.00;51.80;;;;;;5072731;28;20575;-67
2022/10/30 00:41:21;;;;;;;2.67;0.60;;;27.90;44.60;;;;;;5072580;28;20207;-67
2022/10/30 00:43:49;;;;;;;2.27;0.60;;;27.30;45.50;;;;;;5072953;28;20210;-67
2022/10/30 00:46:30;;;;;;;1.10;0.40;;;26.50;46.00;;;;;;5072587;28;20236;-67
2022/10/30 00:49:11;;;;;;;1.50;0.57;;;26.70;45.00;;;;;;5072775;28;20245;-67
2022/10/30 00:51:41;;;;;;;2.60;0.40;;;26.60;41.90;;;;;;5071763;28;20194;-69
2022/10/30 00:54:09;;;;;;;1.07;0.60;;;26.90;45.20;;;;;;5064079;28;20189;-68
2022/10/30 00:56:37;;;;;;;0.40;0.40;;;27.10;45.80;;;;;;5052683;28;20360;-68
2022/10/30 00:59:17;;;;;;;0.80;0.40;;;27.70;45.60;;;;;;5052751;28;20548;-68
2022/10/30 01:01:47;;;;;;;3.77;0.57;;;27.70;41.00;;;;;;5063384;28;20651;-68
2022/10/30 01:04:17;;;;;;;1.13;0.53;;;27.10;43.90;;;;;;5055563;28;20218;-67
2022/10/30 01:06:50;;;;;;;0.60;0.50;;;26.90;41.30;;;;;;5057765;28;20879;-67
2022/10/30 01:09:19;;;;;;;4.97;0.53;;;26.70;41.60;;;;;;5032573;28;20189;-67
2022/10/30 01:11:47;;;;;;;3.80;0.50;;;27.10;42.10;;;;;;5046059;28;20187;-67
2022/10/30 01:14:18;;;;;;;4.50;0.90;;;27.20;39.80;;;;;;5072410;28;20180;-67
2022/10/30 01:17:07;;;;;;;0.83;0.40;;;26.90;42.60;;;;;;5072248;28;20329;-67
2022/10/30 01:20:27;;;;;;;2.47;0.40;;;27.00;43.20;;;;;;5072173;28;20308;-68
2022/10/30 01:23:24;;;;;;;3.20;0.60;;;27.50;40.50;;;;;;5071299;28;20246;-67
2022/10/30 01:26:10;;;;;;;0.33;0.30;;;27.90;40.10;;;;;;5032214;28;20173;-68
2022/10/30 01:28:46;;;;;;;2.90;0.50;;;28.10;39.30;;;;;;5032152;28;20528;-67
2022/10/30 01:31:20;;;;;;;2.10;0.43;;;28.50;40.80;;;;;;5031974;28;20218;-67
2022/10/30 01:33:48;;;;;;;0.80;0.40;;;28.30;39.10;;;;;;5032186;28;20238;-67
2022/10/30 01:36:16;;;;;;;3.80;0.70;;;27.90;40.80;;;;;;5032063;28;20642;-68
2022/10/30 01:38:57;;;;;;;3.27;0.40;;;28.10;38.70;;;;;;5032048;28;20204;-67
2022/10/30 01:41:25;;;;;;;1.07;0.40;;;28.20;37.10;;;;;;5031953;28;20216;-68
2022/10/30 01:43:57;;;;;;;0.50;0.40;;;28.40;34.90;;;;;;5031888;28;20665;-68
2022/10/30 01:46:28;;;;;;;1.63;0.40;;;28.70;34.50;;;;;;5031974;28;20188;-68
2022/10/30 01:49:11;;;;;;;3.27;0.70;;;28.80;36.10;;;;;;5047238;28;20191;-67
2022/10/30 01:51:56;;;;;;;1.07;0.40;;;28.40;37.10;;;;;;5031677;28;20264;-67
2022/10/30 01:54:33;;;;;;;1.73;0.40;;;27.30;33.00;;;;;;5039754;28;20237;-67
2022/10/30 01:57:11;;;;;;;3.27;0.80;;;27.10;37.60;;;;;;5070070;28;20716;-68
2022/10/30 02:00:01;;;;;;;0.77;0.43;;;27.60;41.20;;;;;;5070421;28;20184;-68
2022/10/30 02:02:29;;;;;;;3.00;0.60;;;27.40;38.30;;;;;;5057652;28;20215;-68
2022/10/30 02:04:56;;;;;;;3.03;0.53;;;27.00;38.10;;;;;;5051158;28;20176;-67
2022/10/30 02:07:26;;;;;;;1.53;0.60;;;27.20;36.90;;;;;;5050777;28;20206;-68
2022/10/30 02:09:55;;;;;;;1.13;0.37;;;27.30;40.10;;;;;;5050055;28;20189;-68
2022/10/30 02:12:25;;;;;;;1.53;0.60;;;27.70;37.10;;;;;;5051257;28;20219;-68
2022/10/30 02:14:57;;;;;;;9.70;2.00;;;28.10;34.00;;;;;;5051343;28;20284;-68
2022/10/30 02:17:25;;;;;;;13.97;2.97;;;28.10;33.70;;;;;;5051865;28;20543;-68
2022/10/30 02:19:53;;;;;;;3.07;0.60;;;28.40;36.80;;;;;;5055055;28;20214;-68
2022/10/30 02:22:21;;;;;;;7.60;1.10;;;28.50;32.90;;;;;;5055583;28;20689;-67
2022/10/30 02:24:49;;;;;;;2.47;0.70;;;28.50;34.00;;;;;;5071591;28;20266;-67
2022/10/30 02:27:18;;;;;;;1.07;0.60;;;28.80;32.20;;;;;;5075692;28;20180;-68
2022/10/30 02:29:46;;;;;;;2.20;0.40;;;28.80;32.50;;;;;;5074448;28;20191;-68
2022/10/30 02:32:17;;;;;;;2.00;0.30;;;28.50;30.80;;;;;;5047759;28;20183;-68
2022/10/30 02:34:44;;;;;;;3.47;0.60;;;28.60;31.00;;;;;;5090722;28;20184;-67
2022/10/30 02:37:12;;;;;;;4.87;0.67;;;28.00;30.80;;;;;;5079469;28;20186;-68
2022/10/30 02:39:40;;;;;;;1.13;0.37;;;27.80;35.20;;;;;;5073243;28;20181;-68
2022/10/30 02:42:08;;;;;;;1.20;0.30;;;27.80;37.30;;;;;;5077820;28;20290;-69
2022/10/30 02:44:35;;;;;;;1.33;0.50;;;28.10;33.10;;;;;;5079254;28;20180;-68
2022/10/30 02:47:03;;;;;;;3.63;0.40;;;28.30;34.40;;;;;;5094750;28;20202;-68
2022/10/30 02:49:31;;;;;;;4.33;0.63;;;28.10;35.60;;;;;;5047836;28;20180;-68
2022/10/30 02:52:05;;;;;;;1.17;0.47;;;27.80;33.10;;;;;;5079106;28;20192;-68
2022/10/30 02:54:34;;;;;;;1.73;0.60;;;27.30;31.10;;;;;;5079857;28;20671;-68
2022/10/30 02:57:01;;;;;;;1.93;0.30;;;26.80;32.70;;;;;;5069838;28;20185;-68
2022/10/30 02:59:30;;;;;;;1.47;0.60;;;26.40;33.50;;;;;;5061339;28;20192;-68
2022/10/30 03:01:58;;;;;;;0.43;0.30;;;26.20;35.80;;;;;;5057475;28;20250;-68
2022/10/30 03:04:26;;;;;;;0.70;0.40;;;26.40;31.90;;;;;;5057436;28;20230;-68
2022/10/30 03:06:56;;;;;;;0.77;0.37;;;26.80;33.70;;;;;;5067595;28;20230;-68
2022/10/30 03:09:23;;;;;;;1.10;0.40;;;27.00;31.70;;;;;;5078809;28;20191;-68
2022/10/30 03:11:51;;;;;;;1.23;0.40;;;27.30;34.40;;;;;;5079564;28;20176;-68
2022/10/30 03:14:19;;;;;;;7.53;1.27;;;27.60;32.20;;;;;;5080266;28;20187;-69
2022/10/30 03:16:51;;;;;;;0.50;0.30;;;27.70;34.40;;;;;;5079776;28;20239;-69
2022/10/30 03:19:21;;;;;;;10.23;1.13;;;27.90;33.90;;;;;;5079723;28;20179;-68
2022/10/30 03:21:49;;;;;;;0.50;0.40;;;28.10;32.60;;;;;;5078397;28;20701;-68
2022/10/30 03:24:18;;;;;;;0.90;0.47;;;27.90;31.70;;;;;;5079193;28;20219;-68
2022/10/30 03:26:46;;;;;;;1.03;0.30;;;27.60;30.50;;;;;;5079139;28;20274;-68
2022/10/30 03:29:14;;;;;;;1.17;0.40;;;27.90;29.50;;;;;;5079331;28;20188;-68
2022/10/30 03:31:45;;;;;;;1.07;0.30;;;27.80;32.20;;;;;;5079731;28;20188;-69
2022/10/30 03:34:13;;;;;;;4.47;0.60;;;28.20;34.80;;;;;;5075773;28;20703;-68
2022/10/30 03:36:40;;;;;;;1.37;0.47;;;28.30;33.20;;;;;;5077603;28;20176;-68
2022/10/30 03:39:08;;;;;;;0.27;0.27;;;28.30;32.30;;;;;;5077578;28;20183;-68
2022/10/30 03:41:36;;;;;;;1.43;0.30;;;28.10;31.30;;;;;;5077383;28;20318;-69
2022/10/30 03:44:04;;;;;;;0.90;0.33;;;28.20;31.70;;;;;;5077353;28;20176;-69
2022/10/30 03:46:32;;;;;;;0.50;0.30;;;28.30;32.60;;;;;;5076917;28;20184;-69
2022/10/30 03:49:00;;;;;;;2.67;0.57;;;28.50;31.60;;;;;;5076386;28;20225;-68
2022/10/30 03:51:28;;;;;;;1.97;0.50;;;28.30;31.40;;;;;;5077081;28;20195;-68
2022/10/30 03:53:56;;;;;;;3.87;0.60;;;28.20;30.10;;;;;;5077296;28;20190;-69
2022/10/30 03:56:25;;;;;;;1.47;0.70;;;27.80;29.70;;;;;;5075153;28;20200;-69
2022/10/30 03:58:54;;;;;;;0.47;0.33;;;27.80;31.00;;;;;;5058948;28;20196;-68
2022/10/30 04:01:22;;;;;;;2.50;0.40;;;28.00;29.50;;;;;;5076154;28;20227;-68
2022/10/30 04:03:50;;;;;;;2.20;0.47;;;28.20;29.30;;;;;;5075939;28;20214;-69
2022/10/30 04:06:18;;;;;;;2.97;0.70;;;28.20;30.00;;;;;;5076456;28;20184;-69
2022/10/30 04:08:46;;;;;;;1.60;0.50;;;28.00;36.70;;;;;;5058277;28;20203;-70
2022/10/30 04:11:14;;;;;;;2.50;0.80;;;27.30;38.80;;;;;;5070245;28;20188;-70
2022/10/30 04:13:42;;;;;;;3.43;0.60;;;27.10;40.80;;;;;;5073940;28;20195;-67
2022/10/30 04:16:09;;;;;;;7.60;0.97;;;26.90;43.00;;;;;;5090142;28;20176;-68
2022/10/30 04:18:40;;;;;;;2.00;0.97;;;27.30;42.40;;;;;;5074489;28;20184;-67
2022/10/30 04:21:08;;;;;;;3.00;1.10;;;27.60;44.70;;;;;;5080454;28;20207;-74
2022/10/30 04:23:36;;;;;;;3.03;0.70;;;27.40;46.90;;;;;;5079474;28;20191;-72
2022/10/30 04:26:04;;;;;;;2.27;0.77;;;27.30;47.10;;;;;;5078996;28;20176;-72
2022/10/30 04:28:32;;;;;;;5.30;1.03;;;26.80;43.00;;;;;;5093435;28;20187;-71
2022/10/30 04:30:59;;;;;;;3.00;0.70;;;26.50;50.70;;;;;;5076501;28;20216;-71
2022/10/30 04:33:31;;;;;;;2.80;0.63;;;26.20;48.80;;;;;;5076485;28;20195;-70
2022/10/30 04:35:59;;;;;;;3.87;1.10;;;26.00;52.10;;;;;;5075905;28;20175;-67
2022/10/30 04:38:27;;;;;;;3.10;0.80;;;25.90;50.50;;;;;;5077346;28;20198;-76
2022/10/30 04:40:55;;;;;;;3.30;0.90;;;25.40;49.40;;;;;;5077228;28;20180;-75
2022/10/30 04:43:23;;;;;;;6.07;0.70;;;25.40;57.10;;;;;;5080033;28;20202;-71
2022/10/30 04:45:51;;;;;;;3.80;1.03;;;25.30;54.90;;;;;;5078475;28;20218;-68
2022/10/30 04:48:19;;;;;;;3.50;0.70;;;25.30;56.80;;;;;;5078635;28;20192;-72
2022/10/30 04:50:47;;;;;;;3.00;1.00;;;25.40;62.40;;;;;;5075286;28;20218;-70
2022/10/30 04:53:20;;;;;;;1.47;0.90;;;25.10;57.60;;;;;;5077821;28;20201;-71
2022/10/30 04:55:47;;;;;;;2.17;1.27;;;24.80;65.70;;;;;;5077490;28;20180;-67
2022/10/30 04:58:15;;;;;;;2.97;0.70;;;25.00;66.70;;;;;;5078584;28;20203;-70
2022/10/30 05:00:43;;;;;;;1.30;0.70;;;24.90;60.80;;;;;;5076845;28;20249;-77
2022/10/30 05:03:22;;;;;;;1.27;0.60;;;24.50;60.00;;;;;;5037372;28;20233;-74
2022/10/30 05:05:57;;;;;;;2.77;0.90;;;24.40;65.90;;;;;;5061177;28;20637;-68
2022/10/30 05:08:25;;;;;;;2.47;0.60;;;24.70;65.30;;;;;;5077394;28;20656;-69
2022/10/30 05:10:53;;;;;;;3.97;0.83;;;24.80;62.20;;;;;;5077352;28;20577;-71
2022/10/30 05:13:21;;;;;;;4.30;1.10;;;25.00;61.80;;;;;;5078141;28;20718;-70
2022/10/30 05:15:49;;;;;;;2.23;0.77;;;24.80;57.80;;;;;;5077664;28;20180;-70
2022/10/30 05:18:18;;;;;;;1.73;0.53;;;24.60;60.50;;;;;;5077237;28;20263;-76
2022/10/30 05:20:47;;;;;;;2.63;0.70;;;24.70;63.90;;;;;;5077838;28;20188;-71
2022/10/30 05:23:15;;;;;;;3.80;0.80;;;24.70;64.50;;;;;;5077931;28;20218;-74
2022/10/30 05:25:43;;;;;;;2.13;1.10;;;24.70;69.10;;;;;;5076959;28;20187;-68
2022/10/30 05:28:11;;;;;;;3.17;0.70;;;24.70;75.90;;;;;;5077323;28;20237;-71
2022/10/30 05:30:38;;;;;;;4.93;1.23;;;24.70;76.50;;;;;;5077264;28;20195;-69
2022/10/30 05:33:09;;;;;;;6.27;1.30;;;24.70;83.20;;;;;;5077552;28;20180;-71
2022/10/30 05:35:37;;;;;;;5.17;1.00;;;24.80;85.10;;;;;;5076942;28;20207;-71
2022/10/30 05:38:07;;;;;;;3.10;0.90;;;24.60;76.40;;;;;;5076889;28;20241;-72
2022/10/30 05:40:35;;;;;;;3.00;1.07;;;24.30;78.80;;;;;;5091149;28;20274;-67
2022/10/30 05:43:04;;;;;;;2.77;0.90;;;24.20;81.50;;;;;;5075542;28;20239;-71
2022/10/30 05:45:32;;;;;;;4.13;0.80;;;24.20;86.30;;;;;;5074802;28;20645;-66
2022/10/30 05:48:10;;;;;;;2.57;1.00;;;24.20;92.20;;;;;;5077461;28;20262;-73
2022/10/30 05:50:38;;;;;;;5.60;1.17;;;24.00;91.10;;;;;;5074258;28;20683;-70
2022/10/30 05:53:06;;;;;;;3.07;0.93;;;23.70;91.50;;;;;;5073979;28;20714;-73
2022/10/30 05:55:35;;;;;;;5.60;0.90;;;23.60;94.90;;;;;;5075382;28;20206;-73
2022/10/30 05:58:05;;;;;;;4.90;1.00;;;23.60;94.90;;;;;;5072467;28;20191;-72
2022/10/30 06:00:36;;;;;;;5.07;1.07;;;23.40;95.20;;;;;;5072865;28;20261;-72
2022/10/30 06:03:06;;;;;;;3.57;0.80;;;23.60;97.10;;;;;;5073113;28;20259;-71
2022/10/30 06:05:36;;;;;;;2.70;0.63;;;23.60;99.80;;;;;;5073049;28;20538;-71
2022/10/30 06:08:04;;;;;;;3.40;0.90;;;23.60;98.30;;;;;;5072268;28;20192;-73
2022/10/30 06:10:33;;;;;;;9.83;1.10;;;23.50;96.00;;;;;;5071320;28;20737;-71
2022/10/30 06:13:03;;;;;;;2.20;1.10;;;23.50;97.60;;;;;;5071645;28;20237;-72
2022/10/30 06:15:32;;;;;;;5.20;0.90;;;23.40;97.10;;;;;;5071523;28;20191;-71
2022/10/30 06:18:00;;;;;;;5.63;0.93;;;23.40;95.60;;;;;;5071468;28;20720;-71
2022/10/30 06:20:30;;;;;;;3.20;0.90;;;23.40;96.50;;;;;;5071792;28;20172;-73
2022/10/30 06:23:03;;;;;;;3.40;0.90;;;23.50;99.00;;;;;;5071559;28;20218;-73
2022/10/30 06:25:33;;;;;;;3.20;1.20;;;23.60;97.70;;;;;;5071670;28;20175;-73
2022/10/30 06:28:01;;;;;;;2.83;0.60;;;23.60;98.50;;;;;;5071399;28;20188;-72
2022/10/30 06:30:29;;;;;;;2.53;0.87;;;23.50;98.10;;;;;;5071735;28;20177;-72
2022/10/30 06:32:59;;;;;;;5.07;1.10;;;23.40;99.90;;;;;;5071604;28;20198;-72
2022/10/30 06:35:27;;;;;;;3.90;0.90;;;23.50;99.90;;;;;;5071322;28;20543;-72
2022/10/30 06:37:58;;;;;;;2.17;0.70;;;23.60;98.90;;;;;;5071361;28;20188;-72
2022/10/30 06:40:30;;;;;;;2.50;0.60;;;23.60;99.30;;;;;;5087546;28;20191;-73
2022/10/30 06:42:58;;;;;;;2.10;0.70;;;23.60;97.80;;;;;;5072327;28;20289;-73
2022/10/30 06:45:26;;;;;;;4.30;0.80;;;23.80;92.90;;;;;;5060082;28;20758;-72
2022/10/30 06:47:54;;;;;;;2.60;0.90;;;23.40;91.00;;;;;;5061458;28;20187;-72
2022/10/30 06:50:23;;;;;;;2.40;0.60;;;23.30;92.20;;;;;;5055422;28;20260;-72
2022/10/30 06:52:51;;;;;;;3.47;0.80;;;23.40;93.70;;;;;;5051516;28;20322;-71
2022/10/30 06:55:18;;;;;;;1.97;0.90;;;23.40;92.10;;;;;;5053803;28;20188;-71
2022/10/30 06:57:54;;;;;;;2.30;0.60;;;23.20;92.50;;;;;;5030179;28;20188;-71
2022/10/30 07:00:22;;;;;;;2.03;0.70;;;22.90;92.60;;;;;;5044141;28;20756;-71
2022/10/30 07:03:00;;;;;;;3.30;0.87;;;22.90;93.50;;;;;;5051051;28;20226;-72
2022/10/30 07:05:28;;;;;;;1.97;0.80;;;23.10;96.20;;;;;;5049913;28;20563;-72
2022/10/30 07:07:59;;;;;;;2.80;0.87;;;23.30;94.70;;;;;;5051260;28;20193;-71
2022/10/30 07:10:26;;;;;;;1.97;0.90;;;23.40;93.10;;;;;;5050915;28;20220;-73
2022/10/30 07:12:55;;;;;;;2.27;0.67;;;23.60;93.00;;;;;;5061919;28;20218;-72
2022/10/30 07:15:24;;;;;;;1.53;0.90;;;23.80;92.80;;;;;;5070978;28;20314;-71
2022/10/30 07:18:59;;;;;;;1.73;0.50;;;23.70;92.30;;;;;;5068566;28;20290;-73
2022/10/30 07:21:27;;;;;;;1.67;0.63;;;23.50;91.50;;;;;;5070676;28;20248;-72
2022/10/30 07:23:55;;;;;;;2.93;0.60;;;23.20;92.80;;;;;;5074165;28;20203;-72
2022/10/30 07:26:23;;;;;;;1.57;0.80;;;22.90;91.90;;;;;;5074747;28;20183;-70
2022/10/30 07:28:50;;;;;;;3.27;1.07;;;22.60;93.90;;;;;;5061398;28;20181;-72
2022/10/30 07:31:18;;;;;;;3.50;0.70;;;22.40;96.30;;;;;;5054461;28;20219;-73
2022/10/30 07:33:46;;;;;;;1.50;0.50;;;22.30;98.10;;;;;;5054420;28;20181;-72
2022/10/30 07:36:14;;;;;;;3.60;0.60;;;22.20;99.90;;;;;;5054353;28;20665;-71
2022/10/30 07:38:41;;;;;;;2.70;0.70;;;22.00;99.90;;;;;;5054371;28;20196;-72
2022/10/30 07:41:09;;;;;;;3.93;1.07;;;21.90;99.90;;;;;;5054211;28;20222;-72
2022/10/30 07:43:37;;;;;;;2.80;1.10;;;21.70;99.90;;;;;;5054299;28;20238;-72
2022/10/30 07:46:05;;;;;;;1.33;0.70;;;21.60;99.90;;;;;;5054169;28;20256;-71
2022/10/30 07:48:33;;;;;;;3.20;0.90;;;21.60;99.90;;;;;;5055090;28;20211;-69
2022/10/30 07:51:00;;;;;;;2.90;1.10;;;21.30;99.90;;;;;;5061466;28;20198;-72
2022/10/30 07:53:28;;;;;;;2.97;1.27;;;21.40;99.90;;;;;;5074074;28;20175;-71
2022/10/30 07:55:57;;;;;;;4.53;0.70;;;21.30;99.90;;;;;;5073849;28;20714;-71
2022/10/30 07:58:25;;;;;;;4.97;0.90;;;21.20;99.90;;;;;;5073614;28;20170;-72
2022/10/30 08:00:53;;;;;;;2.40;0.90;;;21.00;99.90;;;;;;5073262;28;20418;-72
2022/10/30 08:03:20;;;;;;;1.80;0.90;;;20.90;99.90;;;;;;5073808;28;20226;-74
2022/10/30 08:05:48;;;;;;;2.97;0.70;;;20.80;99.90;;;;;;5073893;28;20210;-72
2022/10/30 08:08:16;;;;;;;2.17;0.87;;;20.70;99.90;;;;;;5073946;28;20181;-73
2022/10/30 08:10:44;;;;;;;3.13;0.90;;;20.50;99.90;;;;;;5059849;28;20195;-73
2022/10/30 08:13:13;;;;;;;3.77;0.90;;;20.40;99.90;;;;;;5073692;28;20534;-72
2022/10/30 08:15:42;;;;;;;2.20;1.00;;;20.40;99.90;;;;;;5089486;28;20187;-73
2022/10/30 08:18:10;;;;;;;2.80;0.93;;;20.30;99.90;;;;;;5073815;28;20172;-71
2022/10/30 08:20:38;;;;;;;4.17;1.00;;;20.20;99.90;;;;;;5073390;28;20187;-72
2022/10/30 08:23:05;;;;;;;1.93;0.90;;;20.10;99.90;;;;;;5089311;28;20251;-72
2022/10/30 08:25:33;;;;;;;7.17;1.10;;;19.90;99.90;;;;;;5073619;28;20183;-72
2022/10/30 08:28:06;;;;;;;6.47;1.20;;;19.80;99.90;;;;;;5073381;28;20188;-73
2022/10/30 08:30:36;;;;;;;3.57;1.10;;;19.70;99.90;;;;;;5072931;28;20649;-72
2022/10/30 08:33:12;;;;;;;3.27;0.80;;;19.70;99.90;;;;;;5072119;28;20234;-72
2022/10/30 08:35:47;;;;;;;6.80;1.10;;;19.60;99.90;;;;;;5073446;28;20182;-71
2022/10/30 08:38:15;;;;;;;6.10;1.00;;;19.60;99.90;;;;;;5072190;28;20176;-71
2022/10/30 08:40:44;;;;;;;1.93;0.60;;;19.50;99.90;;;;;;5072774;28;20196;-72
2022/10/30 08:43:12;;;;;;;2.17;0.93;;;19.50;99.90;;;;;;5088943;28;20222;-73
2022/10/30 08:45:40;;;;;;;4.33;0.83;;;19.60;99.90;;;;;;5073199;28;20211;-72
2022/10/30 08:48:12;;;;;;;2.77;0.93;;;19.60;99.90;;;;;;5072699;28;20188;-73
2022/10/30 08:50:41;;;;;;;2.53;1.07;;;19.50;99.90;;;;;;5072801;28;20184;-70
2022/10/30 08:53:12;;;;;;;5.47;1.43;;;19.50;99.90;;;;;;5051743;28;20711;-71
2022/10/30 08:55:40;;;;;;;1.57;0.70;;;19.50;99.90;;;;;;5088479;28;20185;-71
2022/10/30 08:58:08;;;;;;;1.30;0.80;;;19.50;99.90;;;;;;5055850;28;20181;-72
2022/10/30 09:00:36;;;;;;;3.33;0.93;;;19.50;99.90;;;;;;5073728;28;20308;-71
2022/10/30 09:03:04;;;;;;;2.60;0.90;;;19.50;99.90;;;;;;5073343;28;20789;-72
2022/10/30 09:05:32;;;;;;;1.90;1.10;;;19.40;99.90;;;;;;5074266;28;20536;-71
2022/10/30 09:08:00;;;;;;;3.33;1.00;;;19.50;99.90;;;;;;5073863;28;20183;-72
2022/10/30 09:10:28;;;;;;;2.40;1.10;;;19.50;99.90;;;;;;5073936;28;20179;-70
2022/10/30 09:12:57;;;;;;;4.00;1.50;;;19.50;99.90;;;;;;5073952;28;20609;-71
2022/10/30 09:15:26;;;;;;;4.33;1.40;;;19.50;99.90;;;;;;5073776;28;20175;-71
2022/10/30 09:18:02;;;;;;;4.33;1.43;;;19.40;99.90;;;;;;5073486;28;20182;-72
2022/10/30 09:20:30;;;;;;;3.43;1.33;;;19.50;99.90;;;;;;5074038;28;20170;-71
2022/10/30 09:22:58;;;;;;;3.87;1.40;;;19.50;99.90;;;;;;5073635;28;20212;-72
2022/10/30 09:25:26;;;;;;;6.53;1.47;;;19.50;99.90;;;;;;5073887;28;20210;-72
2022/10/30 09:27:54;;;;;;;6.90;1.37;;;19.50;99.90;;;;;;5073693;28;20188;-72
2022/10/30 09:30:22;;;;;;;4.77;1.10;;;19.50;99.90;;;;;;5073898;28;20653;-72
2022/10/30 09:33:03;;;;;;;4.57;1.10;;;19.50;99.90;;;;;;5073239;28;20184;-72
2022/10/30 09:35:31;;;;;;;5.63;1.20;;;19.50;99.90;;;;;;5095127;28;20272;-72
2022/10/30 09:37:59;;;;;;;4.27;1.10;;;19.40;99.90;;;;;;5078147;28;20176;-72
2022/10/30 09:40:54;;;;;;;3.37;0.80;;;19.40;99.90;;;;;;5089438;28;20553;-71
2022/10/30 09:43:38;;;;;;;3.50;1.00;;;19.40;99.90;;;;;;5072571;28;20223;-72
2022/10/30 09:46:18;;;;;;;3.50;0.93;;;19.40;99.90;;;;;;5074862;28;20181;-72
2022/10/30 09:49:07;;;;;;;3.80;1.30;;;19.40;99.90;;;;;;5072752;28;20241;-72
2022/10/30 09:52:11;;;;;;;3.03;1.17;;;19.30;99.90;;;;;;5073207;28;20183;-71
2022/10/30 09:54:56;;;;;;;4.43;1.23;;;19.30;99.90;;;;;;5059292;28;20207;-72
2022/10/30 09:57:39;;;;;;;6.57;1.20;;;19.20;99.90;;;;;;5054054;28;20206;-71
2022/10/30 10:00:21;;;;;;;6.30;1.10;;;19.10;99.90;;;;;;5060964;28;20220;-72
2022/10/30 10:03:24;;;;;;;5.93;1.30;;;19.10;99.90;;;;;;5072448;28;20250;-71
2022/10/30 10:05:59;;;;;;;3.83;1.13;;;19.10;99.90;;;;;;5078099;28;20283;-72
2022/10/30 10:08:38;;;;;;;4.90;1.20;;;19.10;99.90;;;;;;5073400;28;20263;-70
2022/10/30 10:11:20;;;;;;;4.20;1.43;;;19.10;99.90;;;;;;5088875;28;20889;-72
2022/10/30 10:13:50;;;;;;;4.77;1.53;;;19.00;99.90;;;;;;5056652;28;20676;-73
2022/10/30 10:16:29;;;;;;;3.23;1.20;;;19.00;99.90;;;;;;5073022;28;20184;-71
2022/10/30 10:18:57;;;;;;;3.53;1.60;;;18.90;99.90;;;;;;5073190;28;20636;-73
2022/10/30 10:21:27;;;;;;;6.90;1.20;;;18.90;99.90;;;;;;5074720;28;20188;-71
2022/10/30 10:24:01;;;;;;;3.90;1.30;;;18.80;99.90;;;;;;5052914;28;20184;-70
2022/10/30 10:26:32;;;;;;;7.40;1.30;;;18.70;99.90;;;;;;5053107;28;20232;-71
2022/10/30 10:29:28;;;;;;;7.80;1.67;;;18.60;99.90;;;;;;5055314;28;20176;-70
2022/10/30 10:32:17;;;;;;;9.03;1.20;;;18.60;99.90;;;;;;5072962;28;20241;-73
2022/10/30 10:35:16;;;;;;;5.30;1.30;;;18.40;99.90;;;;;;5073363;28;20180;-72
2022/10/30 10:37:47;;;;;;;7.73;1.77;;;18.40;99.90;;;;;;5051599;28;20193;-72
2022/10/30 10:40:22;;;;;;;7.53;1.20;;;18.20;99.90;;;;;;5072953;28;20180;-72
2022/10/30 10:43:09;;;;;;;6.07;1.13;;;18.20;99.90;;;;;;5035969;28;20221;-70
2022/10/30 10:45:49;;;;;;;4.00;1.00;;;18.10;99.90;;;;;;5050104;28;20180;-71
2022/10/30 10:48:31;;;;;;;3.57;1.10;;;18.10;99.90;;;;;;5073442;28;20189;-71
2022/10/30 10:51:17;;;;;;;2.70;1.00;;;18.10;99.90;;;;;;5074626;28;20652;-71
2022/10/30 10:54:38;;;;;;;4.83;1.10;;;18.10;99.90;;;;;;5090353;28;20195;-71
2022/10/30 10:57:07;;;;;;;5.73;1.20;;;18.00;99.90;;;;;;5054855;28;20188;-71
2022/10/30 10:59:51;;;;;;;2.93;1.43;;;17.90;99.90;;;;;;5072076;28;20197;-72
2022/10/30 11:02:33;;;;;;;3.73;1.17;;;17.90;99.90;;;;;;5076602;28;20288;-70
2022/10/30 11:05:24;;;;;;;6.17;1.47;;;17.90;99.90;;;;;;5076229;28;20170;-70
2022/10/30 11:07:52;;;;;;;5.83;1.37;;;17.90;99.90;;;;;;5076498;28;20190;-70
2022/10/30 11:10:22;;;;;;;6.07;1.30;;;17.90;99.90;;;;;;5076351;28;20534;-71
2022/10/30 11:12:50;;;;;;;6.37;1.27;;;17.80;99.90;;;;;;5075977;28;20259;-71
2022/10/30 11:15:29;;;;;;;5.10;1.30;;;17.80;99.90;;;;;;5091776;28;20175;-72
2022/10/30 11:18:03;;;;;;;6.10;1.50;;;17.70;99.90;;;;;;5076502;28;20179;-72
2022/10/30 11:20:57;;;;;;;3.33;1.70;;;17.70;99.90;;;;;;5076363;28;20621;-72
2022/10/30 11:23:34;;;;;;;5.37;2.00;;;17.60;99.90;;;;;;5053096;28;20318;-71
2022/10/30 11:26:02;;;;;;;4.60;1.40;;;17.60;99.90;;;;;;5076107;28;20183;-72
2022/10/30 11:28:41;;;;;;;6.13;1.80;;;17.50;99.90;;;;;;5076181;28;20623;-72
2022/10/30 11:31:39;;;;;;;4.00;2.00;;;17.50;99.90;;;;;;5076351;28;20626;-72
2022/10/30 11:34:32;;;;;;;9.23;2.13;;;17.60;99.90;;;;;;5075957;28;20190;-72
2022/10/30 11:36:59;;;;;;;5.80;1.43;;;17.60;99.90;;;;;;5076865;28;20591;-71
2022/10/30 11:39:37;;;;;;;5.70;1.40;;;17.70;99.90;;;;;;5074881;28;20211;-73
2022/10/30 11:42:17;;;;;;;6.93;2.10;;;17.70;99.90;;;;;;5075582;28;20288;-72
2022/10/30 11:44:53;;;;;;;8.23;1.63;;;17.70;99.90;;;;;;5091125;28;20180;-71
2022/10/30 11:47:29;;;;;;;11.20;1.77;;;17.80;99.90;;;;;;5075576;28;20175;-70
2022/10/30 11:50:19;;;;;;;4.60;1.30;;;17.90;99.90;;;;;;5075895;28;20176;-70
2022/10/30 11:53:08;;;;;;;5.50;1.40;;;17.90;99.90;;;;;;5075713;28;20172;-70
2022/10/30 11:55:45;;;;;;;4.27;1.50;;;17.80;99.90;;;;;;5075100;28;20703;-71
2022/10/30 11:58:28;;;;;;;3.13;1.40;;;17.80;99.90;;;;;;5075670;28;20584;-72
2022/10/30 12:01:06;;;;;;;4.30;1.43;;;17.80;99.90;;;;;;5056920;28;20220;-72
2022/10/30 12:03:39;;;;;;;4.90;1.43;;;17.80;99.90;;;;;;5055530;28;20212;-71
2022/10/30 12:06:19;;;;;;;5.80;1.60;;;17.80;99.90;;;;;;5074268;28;20203;-71
2022/10/30 12:09:19;;;;;;;2.70;1.50;;;17.80;99.90;;;;;;5090992;28;20612;-72
2022/10/30 12:11:47;;;;;;;6.37;2.03;;;17.70;99.90;;;;;;5075492;28;20247;-72
2022/10/30 12:14:23;;;;;;;3.93;1.63;;;17.80;99.90;;;;;;5074959;28;20182;-70
2022/10/30 12:16:56;;;;;;;3.73;1.67;;;17.90;99.90;;;;;;5075603;28;20179;-70
2022/10/30 12:19:25;;;;;;;4.47;1.80;;;17.90;99.90;;;;;;5075500;28;20168;-71
2022/10/30 12:21:57;;;;;;;7.20;1.90;;;18.00;99.90;;;;;;5075291;28;20340;-70
2022/10/30 12:24:31;;;;;;;5.77;1.93;;;18.00;99.90;;;;;;5074716;28;20179;-71
2022/10/30 12:27:03;;;;;;;7.40;1.40;;;18.00;99.90;;;;;;5075325;28;20396;-72
2022/10/30 12:29:49;;;;;;;5.73;1.70;;;18.00;99.90;;;;;;5074689;28;20172;-71
2022/10/30 12:32:20;;;;;;;4.90;1.50;;;18.10;99.90;;;;;;5074985;28;20179;-71
2022/10/30 12:34:59;;;;;;;3.37;1.47;;;18.10;99.90;;;;;;5074836;28;20176;-71
2022/10/30 12:37:36;;;;;;;6.00;1.83;;;18.10;99.90;;;;;;5074941;28;20176;-71
2022/10/30 12:40:14;;;;;;;5.37;1.67;;;18.10;99.90;;;;;;5074769;28;20643;-70
2022/10/30 12:42:50;;;;;;;4.90;1.47;;;18.10;99.90;;;;;;5074708;28;20207;-70
2022/10/30 12:45:51;;;;;;;5.00;1.43;;;18.20;99.90;;;;;;5074469;28;20175;-71
2022/10/30 12:48:52;;;;;;;4.90;1.40;;;18.10;99.90;;;;;;5073186;28;20828;-71
2022/10/30 12:51:41;;;;;;;6.83;1.47;;;18.10;99.90;;;;;;5075442;28;20645;-71
2022/10/30 12:54:24;;;;;;;5.07;1.27;;;18.10;99.90;;;;;;5090139;28;20233;-72
2022/10/30 12:57:08;;;;;;;4.20;1.37;;;18.20;99.90;;;;;;5074083;28;20233;-73
2022/10/30 12:59:59;;;;;;;5.13;1.50;;;18.10;99.90;;;;;;5074382;28;20210;-73
2022/10/30 13:02:33;;;;;;;2.83;1.30;;;18.20;99.90;;;;;;5074171;28;20595;-72
2022/10/30 13:05:19;;;;;;;5.27;1.17;;;18.20;99.90;;;;;;5074402;28;20260;-71
2022/10/30 13:08:13;;;;;;;5.43;1.47;;;18.10;99.90;;;;;;5055711;28;20234;-71
2022/10/30 13:10:52;;;;;;;4.90;1.70;;;18.10;99.90;;;;;;5074414;28;20588;-71
2022/10/30 13:13:27;;;;;;;6.47;1.87;;;18.10;99.90;;;;;;5074269;28;20182;-72
2022/10/30 13:15:57;;;;;;;2.97;1.30;;;18.10;99.90;;;;;;5073943;28;20171;-71